Time;durP1;ratioP1;P1;durP2;ratioP2;P2;SDS_P1;SDS_P2;PMS_P1;PMS_P2;Temp;Humidity;BMP_temperature;BMP_pressure;BME280_temperature;BME280_humidity;BME280_pressure;Samples;Min_cycle;Max_cycle;Signal;HPM_P1;HPM_P2
2022/04/24 00:00:17;;;;;;;11.95;5.40;;;16.30;99.90;;;;;;5078895;28;20040;-69
2022/04/24 00:02:45;;;;;;;11.27;4.72;;;16.30;99.90;;;;;;5042901;28;20047;-67
2022/04/24 00:05:13;;;;;;;9.60;4.38;;;16.10;99.90;;;;;;5055199;28;20048;-68
2022/04/24 00:07:41;;;;;;;12.95;6.15;;;16.10;99.90;;;;;;5066182;28;20044;-68
2022/04/24 00:10:10;;;;;;;10.93;4.68;;;16.10;99.90;;;;;;5055491;28;20056;-68
2022/04/24 00:12:38;;;;;;;9.82;3.72;;;16.10;99.90;;;;;;5061996;28;20048;-68
2022/04/24 00:15:07;;;;;;;11.10;3.97;;;16.10;99.90;;;;;;5062892;28;20132;-68
2022/04/24 00:17:37;;;;;;;9.52;5.03;;;16.10;99.90;;;;;;5041406;28;20048;-69
2022/04/24 00:20:05;;;;;;;10.32;3.63;;;16.10;99.90;;;;;;5027185;28;20049;-70
2022/04/24 00:22:33;;;;;;;8.13;3.20;;;16.10;99.90;;;;;;5064904;28;20123;-70
2022/04/24 00:25:00;;;;;;;12.77;4.15;;;16.10;99.90;;;;;;5043734;28;20106;-70
2022/04/24 00:27:28;;;;;;;12.63;3.65;;;16.10;99.90;;;;;;5061642;28;20078;-69
2022/04/24 00:29:56;;;;;;;6.80;3.80;;;16.00;99.90;;;;;;5065468;28;20094;-71
2022/04/24 00:32:23;;;;;;;7.55;3.33;;;15.90;99.90;;;;;;5054655;28;20044;-73
2022/04/24 00:34:51;;;;;;;13.02;3.90;;;15.90;99.90;;;;;;5054874;28;20028;-70
2022/04/24 00:37:18;;;;;;;10.05;3.95;;;15.80;99.90;;;;;;5057648;28;20052;-70
2022/04/24 00:39:46;;;;;;;14.40;4.32;;;15.80;99.90;;;;;;5049756;28;20380;-72
2022/04/24 00:42:14;;;;;;;9.93;4.82;;;15.80;99.90;;;;;;5047166;28;20533;-70
2022/04/24 00:44:41;;;;;;;15.00;4.93;;;15.50;99.90;;;;;;5083278;28;20055;-71
2022/04/24 00:47:26;;;;;;;16.27;4.78;;;15.40;99.90;;;;;;5069561;28;20047;-70
2022/04/24 00:49:54;;;;;;;9.60;4.20;;;15.50;99.90;;;;;;5038374;28;20056;-71
2022/04/24 00:52:22;;;;;;;10.60;4.63;;;15.40;99.90;;;;;;5070069;28;20598;-70
2022/04/24 00:54:51;;;;;;;10.65;5.38;;;15.30;99.90;;;;;;5076194;28;20044;-68
2022/04/24 00:57:19;;;;;;;18.40;6.25;;;15.20;99.90;;;;;;5077039;28;20050;-69
2022/04/24 00:59:47;;;;;;;7.88;3.70;;;15.20;99.90;;;;;;5061634;28;20059;-70
2022/04/24 01:02:15;;;;;;;13.18;3.67;;;15.20;99.90;;;;;;5044141;28;20059;-70
2022/04/24 01:04:42;;;;;;;7.97;4.57;;;15.20;99.90;;;;;;5076281;28;20037;-68
2022/04/24 01:07:10;;;;;;;8.60;4.07;;;15.30;99.90;;;;;;5081146;28;20048;-74
2022/04/24 01:09:38;;;;;;;10.10;3.80;;;15.30;99.90;;;;;;5082051;28;20046;-68
2022/04/24 01:12:06;;;;;;;17.45;4.53;;;15.30;99.90;;;;;;5059216;28;20084;-68
2022/04/24 01:14:35;;;;;;;6.63;3.72;;;15.30;99.90;;;;;;5069324;28;20039;-68
2022/04/24 01:17:04;;;;;;;10.63;4.43;;;15.30;99.90;;;;;;5052311;28;20039;-68
2022/04/24 01:19:32;;;;;;;9.90;4.32;;;15.30;99.90;;;;;;5057794;28;20119;-68
2022/04/24 01:22:00;;;;;;;12.60;4.18;;;15.20;99.90;;;;;;5043573;28;20047;-69
2022/04/24 01:24:29;;;;;;;9.98;4.63;;;15.20;99.90;;;;;;5077470;28;20378;-68
2022/04/24 01:26:57;;;;;;;14.00;4.25;;;15.20;99.90;;;;;;5094391;28;20451;-68
2022/04/24 01:29:25;;;;;;;7.63;3.95;;;15.20;99.90;;;;;;5077942;28;20054;-68
2022/04/24 01:31:53;;;;;;;7.70;3.47;;;15.20;99.90;;;;;;5094622;28;20039;-68
2022/04/24 01:34:21;;;;;;;12.98;4.10;;;15.20;99.90;;;;;;5078134;28;20052;-69
2022/04/24 01:36:49;;;;;;;9.88;3.95;;;15.20;99.90;;;;;;5060730;28;20127;-68
2022/04/24 01:39:17;;;;;;;8.13;3.78;;;15.20;99.90;;;;;;5061328;28;20405;-68
2022/04/24 01:41:45;;;;;;;11.63;3.63;;;15.30;99.90;;;;;;5112715;28;20485;-68
2022/04/24 01:44:13;;;;;;;8.82;3.67;;;15.30;99.90;;;;;;5077777;28;20043;-73
2022/04/24 01:46:40;;;;;;;6.32;2.80;;;15.40;99.90;;;;;;5060709;28;20043;-72
2022/04/24 01:49:08;;;;;;;7.18;3.38;;;15.50;99.90;;;;;;5094471;28;20032;-73
2022/04/24 01:51:35;;;;;;;10.55;3.47;;;15.50;99.90;;;;;;5077734;28;20138;-72
2022/04/24 01:54:03;;;;;;;7.13;3.53;;;15.40;99.90;;;;;;5093260;28;20043;-72
2022/04/24 01:56:31;;;;;;;7.00;3.10;;;15.50;99.90;;;;;;5077394;28;20039;-73
2022/04/24 01:58:58;;;;;;;10.85;3.33;;;15.50;99.90;;;;;;5056828;28;20695;-74
2022/04/24 02:01:25;;;;;;;6.85;3.05;;;15.50;99.90;;;;;;5053833;28;20144;-73
2022/04/24 02:03:53;;;;;;;15.15;3.65;;;15.50;99.90;;;;;;5053942;28;20049;-73
2022/04/24 02:06:21;;;;;;;6.97;2.20;;;15.40;99.90;;;;;;5053985;28;20068;-72
2022/04/24 02:08:48;;;;;;;10.05;2.58;;;15.40;99.90;;;;;;5020322;28;20045;-72
2022/04/24 02:11:16;;;;;;;11.98;3.70;;;15.40;99.90;;;;;;5053798;28;20048;-73
2022/04/24 02:13:45;;;;;;;4.78;2.92;;;15.40;99.90;;;;;;5071372;28;20086;-73
2022/04/24 02:16:12;;;;;;;4.97;2.30;;;15.30;99.90;;;;;;5053360;28;20129;-73
2022/04/24 02:18:40;;;;;;;8.32;3.58;;;15.20;99.90;;;;;;5071213;28;20044;-72
2022/04/24 02:21:10;;;;;;;9.23;4.45;;;15.30;99.90;;;;;;5071355;28;20059;-72
2022/04/24 02:23:37;;;;;;;9.65;2.92;;;15.20;99.90;;;;;;5036952;28;20410;-73
2022/04/24 02:26:05;;;;;;;8.20;3.75;;;15.10;99.90;;;;;;5071045;28;20483;-73
2022/04/24 02:28:32;;;;;;;7.40;4.00;;;14.90;99.90;;;;;;5053499;28;20047;-73
2022/04/24 02:31:00;;;;;;;8.48;3.25;;;14.90;99.90;;;;;;5036405;28;20078;-73
2022/04/24 02:33:27;;;;;;;6.80;2.70;;;14.90;99.90;;;;;;5052830;28;20128;-73
2022/04/24 02:35:55;;;;;;;9.00;2.83;;;14.90;99.90;;;;;;5036920;28;20060;-73
2022/04/24 02:38:22;;;;;;;7.45;2.67;;;14.90;99.90;;;;;;5053272;28;20041;-73
2022/04/24 02:40:50;;;;;;;4.07;2.10;;;14.90;99.90;;;;;;5052001;28;20059;-73
2022/04/24 02:43:17;;;;;;;6.28;2.65;;;14.80;99.90;;;;;;5053020;28;20043;-73
2022/04/24 02:45:45;;;;;;;8.15;2.60;;;14.80;99.90;;;;;;5046609;28;20071;-73
2022/04/24 02:48:13;;;;;;;7.75;2.13;;;14.80;99.90;;;;;;5053307;28;20045;-73
2022/04/24 02:50:41;;;;;;;6.75;2.15;;;14.70;99.90;;;;;;5036483;28;20099;-73
2022/04/24 02:53:10;;;;;;;10.90;3.30;;;14.70;99.90;;;;;;5035268;28;20130;-72
2022/04/24 02:55:38;;;;;;;8.90;3.35;;;14.70;99.90;;;;;;5036028;28;20052;-72
2022/04/24 02:58:06;;;;;;;7.45;3.33;;;14.80;99.90;;;;;;5052417;28;20060;-73
2022/04/24 03:00:50;;;;;;;6.80;3.15;;;14.80;99.90;;;;;;5053604;28;20040;-73
2022/04/24 03:03:18;;;;;;;6.55;2.50;;;14.80;99.90;;;;;;5050278;28;20102;-73
2022/04/24 03:05:48;;;;;;;7.82;2.15;;;14.70;99.90;;;;;;5035982;28;20123;-73
2022/04/24 03:08:18;;;;;;;8.32;3.28;;;14.60;99.90;;;;;;5052341;28;20052;-73
2022/04/24 03:10:45;;;;;;;7.57;2.90;;;14.50;99.90;;;;;;5036351;28;20049;-73
2022/04/24 03:13:13;;;;;;;6.47;3.00;;;14.50;99.90;;;;;;5070476;28;20040;-73
2022/04/24 03:15:41;;;;;;;6.10;1.95;;;14.50;99.90;;;;;;5052344;28;20585;-73
2022/04/24 03:18:08;;;;;;;8.88;3.00;;;14.30;99.90;;;;;;5036014;28;20040;-73
2022/04/24 03:20:36;;;;;;;6.90;2.25;;;14.30;99.90;;;;;;5052343;28;20044;-73
2022/04/24 03:23:03;;;;;;;12.02;4.32;;;14.20;99.90;;;;;;5052156;28;20060;-73
2022/04/24 03:25:31;;;;;;;8.02;2.83;;;14.20;99.90;;;;;;5070153;28;20079;-73
2022/04/24 03:27:59;;;;;;;4.20;2.75;;;14.20;99.90;;;;;;5035999;28;20067;-72
2022/04/24 03:30:27;;;;;;;4.95;2.20;;;14.20;99.90;;;;;;5051859;28;20056;-73
2022/04/24 03:32:54;;;;;;;4.05;2.28;;;14.20;99.90;;;;;;5051708;28;20051;-72
2022/04/24 03:35:22;;;;;;;8.20;2.78;;;14.30;99.90;;;;;;5052499;28;20049;-73
2022/04/24 03:37:50;;;;;;;8.07;2.40;;;14.30;99.90;;;;;;5019344;28;20059;-73
2022/04/24 03:40:19;;;;;;;12.05;4.65;;;14.40;99.90;;;;;;5035435;28;20052;-73
2022/04/24 03:42:47;;;;;;;5.80;3.30;;;14.40;99.90;;;;;;5019067;28;20663;-73
2022/04/24 03:45:15;;;;;;;7.50;4.13;;;14.40;99.90;;;;;;5035812;28;20548;-73
2022/04/24 03:47:42;;;;;;;8.07;3.13;;;14.40;99.90;;;;;;5052345;28;20448;-73
2022/04/24 03:50:10;;;;;;;6.10;2.67;;;14.60;99.90;;;;;;5019370;28;20530;-73
2022/04/24 03:52:38;;;;;;;14.75;3.65;;;14.60;99.90;;;;;;5019052;28;20088;-73
2022/04/24 03:55:06;;;;;;;4.65;1.92;;;14.60;99.90;;;;;;5034897;28;20059;-73
2022/04/24 03:57:34;;;;;;;6.70;2.05;;;14.60;99.90;;;;;;5035776;28;20437;-73
2022/04/24 04:00:03;;;;;;;5.90;2.47;;;14.60;99.90;;;;;;5035553;28;20083;-72
2022/04/24 04:02:48;;;;;;;4.18;2.38;;;14.70;99.90;;;;;;5069944;28;20041;-72
2022/04/24 04:05:20;;;;;;;5.47;3.03;;;14.80;99.90;;;;;;5019475;28;20065;-73
2022/04/24 04:07:48;;;;;;;5.63;3.05;;;14.70;99.90;;;;;;5018874;28;20459;-74
2022/04/24 04:10:16;;;;;;;14.10;2.92;;;14.80;99.90;;;;;;5035426;28;20511;-73
2022/04/24 04:12:43;;;;;;;7.63;3.05;;;14.80;99.90;;;;;;5052282;28;20505;-73
2022/04/24 04:15:11;;;;;;;4.78;2.33;;;14.80;99.90;;;;;;5069681;28;20047;-73
2022/04/24 04:17:39;;;;;;;6.28;2.88;;;14.80;99.90;;;;;;5053493;28;20088;-73
2022/04/24 04:20:11;;;;;;;18.13;3.55;;;14.80;99.90;;;;;;5055575;28;20053;-73
2022/04/24 04:22:51;;;;;;;7.93;3.10;;;14.60;99.90;;;;;;5022974;28;20048;-72
2022/04/24 04:25:26;;;;;;;6.40;2.75;;;14.60;99.90;;;;;;5067908;28;20098;-72
2022/04/24 04:27:53;;;;;;;9.63;3.30;;;14.50;99.90;;;;;;5075520;28;20135;-73
2022/04/24 04:30:21;;;;;;;10.38;2.95;;;14.50;99.90;;;;;;5075394;28;20051;-74
2022/04/24 04:32:50;;;;;;;5.10;2.80;;;14.40;99.90;;;;;;5058999;28;20051;-72
2022/04/24 04:35:22;;;;;;;4.55;3.15;;;14.30;99.90;;;;;;5075394;28;20122;-72
2022/04/24 04:37:50;;;;;;;4.05;2.45;;;14.20;99.90;;;;;;5041953;28;20383;-73
2022/04/24 04:40:18;;;;;;;6.22;3.13;;;14.20;99.90;;;;;;5075698;28;20131;-73
2022/04/24 04:42:48;;;;;;;11.82;2.70;;;14.20;99.90;;;;;;5093202;28;20080;-73
2022/04/24 04:45:16;;;;;;;7.80;2.25;;;14.20;99.90;;;;;;5075540;28;20502;-73
2022/04/24 04:47:47;;;;;;;6.30;2.10;;;14.20;99.90;;;;;;5059096;28;20040;-73
2022/04/24 04:50:14;;;;;;;6.90;3.03;;;14.20;99.90;;;;;;5058584;28;20056;-73
2022/04/24 04:52:42;;;;;;;6.50;2.85;;;14.20;99.90;;;;;;5074844;28;20509;-73
2022/04/24 04:55:10;;;;;;;4.75;2.28;;;14.30;99.90;;;;;;5058046;28;20070;-73
2022/04/24 04:57:38;;;;;;;5.63;2.55;;;14.30;99.90;;;;;;5042442;28;20071;-73
2022/04/24 05:00:07;;;;;;;7.43;2.55;;;14.40;99.90;;;;;;5092698;28;20044;-73
2022/04/24 05:02:38;;;;;;;11.75;3.47;;;14.50;99.90;;;;;;5058572;28;20048;-73
2022/04/24 05:05:07;;;;;;;5.78;2.65;;;14.60;99.90;;;;;;5058674;28;20448;-73
2022/04/24 05:07:36;;;;;;;5.70;2.13;;;14.70;99.90;;;;;;5075143;28;20056;-73
2022/04/24 05:10:05;;;;;;;4.22;2.45;;;14.80;99.90;;;;;;5075185;28;20052;-73
2022/04/24 05:12:33;;;;;;;6.70;3.08;;;14.90;99.90;;;;;;5058820;28;20045;-73
2022/04/24 05:15:05;;;;;;;6.50;3.30;;;14.90;99.90;;;;;;5038352;28;20056;-73
2022/04/24 05:17:34;;;;;;;3.78;2.60;;;15.00;99.90;;;;;;5021862;28;20573;-73
2022/04/24 05:20:04;;;;;;;7.75;3.20;;;15.10;99.90;;;;;;5038175;28;20131;-74
2022/04/24 05:22:31;;;;;;;4.28;2.47;;;15.20;99.90;;;;;;5021855;28;20048;-74
2022/04/24 05:24:59;;;;;;;8.88;2.83;;;15.30;99.90;;;;;;5037648;28;20048;-74
2022/04/24 05:27:27;;;;;;;5.07;2.60;;;15.30;99.90;;;;;;5054757;28;20486;-72
2022/04/24 05:29:55;;;;;;;6.43;2.30;;;15.40;99.90;;;;;;5071104;28;20052;-73
2022/04/24 05:32:23;;;;;;;7.90;2.83;;;15.40;99.90;;;;;;5037615;28;20384;-73
2022/04/24 05:34:52;;;;;;;3.63;2.00;;;15.30;99.90;;;;;;5036854;28;20228;-74
2022/04/24 05:37:20;;;;;;;6.40;2.45;;;15.40;99.90;;;;;;5056734;28;20060;-74
2022/04/24 05:39:47;;;;;;;5.13;2.08;;;15.40;99.90;;;;;;5101872;28;20124;-74
2022/04/24 05:42:15;;;;;;;5.35;2.38;;;15.60;99.90;;;;;;5067857;28;20075;-74
2022/04/24 05:44:43;;;;;;;3.80;1.95;;;15.70;99.90;;;;;;5064387;28;20611;-75
2022/04/24 05:47:10;;;;;;;5.60;2.13;;;15.90;99.90;;;;;;5093964;28;20478;-76
2022/04/24 05:49:38;;;;;;;5.50;2.05;;;16.10;99.90;;;;;;5084953;28;20056;-74
2022/04/24 05:52:07;;;;;;;3.67;2.15;;;16.20;99.90;;;;;;5069423;28;20066;-74
2022/04/24 05:54:34;;;;;;;8.82;3.28;;;16.20;99.90;;;;;;5065713;28;20051;-74
2022/04/24 05:57:02;;;;;;;5.88;2.53;;;16.20;99.90;;;;;;5083292;28;20040;-73
2022/04/24 05:59:30;;;;;;;5.00;2.55;;;16.20;99.90;;;;;;5038829;28;20372;-74
2022/04/24 06:01:57;;;;;;;5.57;3.20;;;16.20;99.90;;;;;;5079618;28;20097;-74
2022/04/24 06:04:26;;;;;;;4.75;2.35;;;16.20;99.90;;;;;;5046226;28;20058;-73
2022/04/24 06:06:54;;;;;;;4.40;2.03;;;16.20;99.90;;;;;;5065964;28;20115;-74
2022/04/24 06:09:22;;;;;;;4.22;2.33;;;16.40;99.90;;;;;;5054012;28;20102;-74
2022/04/24 06:11:53;;;;;;;9.45;2.38;;;16.60;99.90;;;;;;5085251;28;20073;-75
2022/04/24 06:14:20;;;;;;;8.30;2.50;;;16.80;99.90;;;;;;5059250;28;20043;-74
2022/04/24 06:16:48;;;;;;;5.88;2.85;;;16.90;99.90;;;;;;5074181;28;20048;-75
2022/04/24 06:19:16;;;;;;;5.38;1.92;;;16.90;99.90;;;;;;5075775;28;20072;-74
2022/04/24 06:21:43;;;;;;;4.25;2.05;;;17.10;99.90;;;;;;5046008;28;20069;-74
2022/04/24 06:24:14;;;;;;;3.35;1.90;;;17.10;99.90;;;;;;5069263;28;20048;-74
2022/04/24 06:26:44;;;;;;;7.15;2.55;;;17.20;99.90;;;;;;5052382;28;20094;-75
2022/04/24 06:29:12;;;;;;;4.38;2.13;;;17.30;99.90;;;;;;5035350;28;20091;-74
2022/04/24 06:31:40;;;;;;;7.13;2.95;;;17.50;99.90;;;;;;5069167;28;20063;-74
2022/04/24 06:34:08;;;;;;;5.35;2.17;;;17.40;99.90;;;;;;5069023;28;20517;-74
2022/04/24 06:36:35;;;;;;;6.70;2.78;;;17.40;99.90;;;;;;5052299;28;20050;-74
2022/04/24 06:39:02;;;;;;;5.45;2.80;;;17.60;99.90;;;;;;5068309;28;20047;-75
2022/04/24 06:41:30;;;;;;;5.15;2.58;;;17.70;99.90;;;;;;5068737;28;20094;-74
2022/04/24 06:43:58;;;;;;;7.03;2.75;;;17.90;99.90;;;;;;5068658;28;20044;-74
2022/04/24 06:46:25;;;;;;;4.07;2.33;;;18.10;99.90;;;;;;5051988;28;20076;-74
2022/04/24 06:48:53;;;;;;;3.75;2.67;;;18.20;99.90;;;;;;5051560;28;20044;-73
2022/04/24 06:51:21;;;;;;;4.97;2.65;;;18.40;99.90;;;;;;5069199;28;20070;-74
2022/04/24 06:53:48;;;;;;;7.68;2.03;;;18.50;99.90;;;;;;5068611;28;20033;-74
2022/04/24 06:56:16;;;;;;;16.17;4.00;;;18.70;99.90;;;;;;5035101;28;20044;-75
2022/04/24 06:58:43;;;;;;;5.75;2.50;;;18.60;99.90;;;;;;5053227;28;20060;-74
2022/04/24 07:01:13;;;;;;;6.95;3.45;;;18.60;99.90;;;;;;5049998;28;20502;-74
2022/04/24 07:03:41;;;;;;;5.22;2.97;;;18.70;99.90;;;;;;5032387;28;20092;-73
2022/04/24 07:06:08;;;;;;;13.40;2.70;;;18.80;99.90;;;;;;5048521;28;20068;-74
2022/04/24 07:08:42;;;;;;;7.68;2.20;;;18.90;99.90;;;;;;5011845;28;348882;-74
2022/04/24 07:11:17;;;;;;;6.22;2.60;;;19.00;99.90;;;;;;5030655;28;20306;-74
2022/04/24 07:13:45;;;;;;;3.60;1.90;;;19.10;99.90;;;;;;5049253;28;20402;-73
2022/04/24 07:16:13;;;;;;;4.60;2.45;;;19.20;99.90;;;;;;5049166;28;20041;-74
2022/04/24 07:18:40;;;;;;;4.07;2.72;;;19.40;99.90;;;;;;5049001;28;20044;-74
2022/04/24 07:21:08;;;;;;;5.63;2.28;;;19.60;99.90;;;;;;5050180;28;20472;-73
2022/04/24 07:23:37;;;;;;;6.32;2.28;;;19.70;99.50;;;;;;5032684;28;20049;-74
2022/04/24 07:26:04;;;;;;;4.15;2.28;;;19.80;99.10;;;;;;5048775;28;20087;-74
2022/04/24 07:28:32;;;;;;;6.22;2.28;;;19.80;99.40;;;;;;5048486;28;20037;-74
2022/04/24 07:31:00;;;;;;;8.77;2.33;;;20.00;99.50;;;;;;5032133;28;20057;-74
2022/04/24 07:33:28;;;;;;;6.65;2.70;;;20.20;98.90;;;;;;5032220;28;20055;-74
2022/04/24 07:35:55;;;;;;;7.18;2.75;;;20.20;98.70;;;;;;5032305;28;20052;-74
2022/04/24 07:38:23;;;;;;;3.60;2.13;;;20.30;98.80;;;;;;5048953;28;20142;-74
2022/04/24 07:40:51;;;;;;;3.25;2.00;;;20.40;98.60;;;;;;5032107;28;20045;-74
2022/04/24 07:43:18;;;;;;;5.00;1.98;;;20.60;98.60;;;;;;5049688;28;20095;-74
2022/04/24 07:45:47;;;;;;;4.05;2.78;;;20.60;97.60;;;;;;5048933;28;20037;-74
2022/04/24 07:48:16;;;;;;;5.32;1.92;;;20.70;96.60;;;;;;5048960;28;20049;-75
2022/04/24 07:50:51;;;;;;;3.40;1.80;;;20.70;95.80;;;;;;5033513;28;20052;-74
2022/04/24 07:53:20;;;;;;;4.32;1.77;;;20.90;96.20;;;;;;5035008;28;20053;-73
2022/04/24 07:55:50;;;;;;;5.88;2.10;;;21.00;96.10;;;;;;5036010;28;20084;-74
2022/04/24 07:58:17;;;;;;;6.25;2.50;;;21.10;95.80;;;;;;5020383;28;20057;-74
2022/04/24 08:00:47;;;;;;;3.10;2.00;;;21.10;95.30;;;;;;5052629;28;20056;-73
2022/04/24 08:03:16;;;;;;;3.22;1.63;;;21.20;95.40;;;;;;5036552;28;20527;-73
2022/04/24 08:05:45;;;;;;;3.65;1.60;;;21.40;95.20;;;;;;5036140;28;20094;-74
2022/04/24 08:08:15;;;;;;;4.22;1.80;;;21.60;95.00;;;;;;5036037;28;20131;-74
2022/04/24 08:10:49;;;;;;;6.68;2.85;;;21.60;94.30;;;;;;5053245;28;20052;-73
2022/04/24 08:13:18;;;;;;;3.53;2.30;;;21.30;94.90;;;;;;5052451;28;20048;-74
2022/04/24 08:15:47;;;;;;;2.92;2.00;;;21.00;94.70;;;;;;5036047;28;20591;-74
2022/04/24 08:18:14;;;;;;;3.58;1.92;;;20.80;95.00;;;;;;5035563;28;20041;-74
2022/04/24 08:20:43;;;;;;;4.13;1.90;;;20.80;95.50;;;;;;5035334;28;20045;-74
2022/04/24 08:23:12;;;;;;;3.03;1.50;;;20.70;95.40;;;;;;5035340;28;20059;-74
2022/04/24 08:25:40;;;;;;;5.55;1.70;;;20.80;95.20;;;;;;5035800;28;20045;-75
2022/04/24 08:28:13;;;;;;;4.13;1.80;;;21.00;95.00;;;;;;5052143;28;20041;-73
2022/04/24 08:30:43;;;;;;;2.92;1.80;;;21.20;94.90;;;;;;5035654;28;20511;-74
2022/04/24 08:33:11;;;;;;;3.47;1.92;;;21.20;94.60;;;;;;5035458;28;20041;-74
2022/04/24 08:35:39;;;;;;;4.43;1.58;;;21.20;93.90;;;;;;5052112;28;20037;-74
2022/04/24 08:38:08;;;;;;;2.20;1.48;;;21.10;93.80;;;;;;5035900;28;20564;-73
2022/04/24 08:40:35;;;;;;;12.60;1.95;;;21.20;94.40;;;;;;5035478;28;20053;-73
2022/04/24 08:43:03;;;;;;;3.28;1.60;;;21.40;93.60;;;;;;5059393;28;20041;-74
2022/04/24 08:45:33;;;;;;;3.70;1.55;;;21.40;94.00;;;;;;5055072;28;20075;-73
2022/04/24 08:48:04;;;;;;;5.05;1.52;;;21.60;94.10;;;;;;5039012;28;20102;-70
2022/04/24 08:50:33;;;;;;;3.03;1.75;;;21.70;93.60;;;;;;5055679;28;20044;-70
2022/04/24 08:53:01;;;;;;;4.97;1.58;;;21.70;93.10;;;;;;5039148;28;20429;-70
2022/04/24 08:55:32;;;;;;;3.78;2.20;;;21.60;93.30;;;;;;5072140;28;20052;-71
2022/04/24 08:58:01;;;;;;;5.72;2.50;;;21.60;93.20;;;;;;5055324;28;20056;-71
2022/04/24 09:00:29;;;;;;;4.93;2.05;;;21.60;93.20;;;;;;5055111;28;20053;-71
2022/04/24 09:02:58;;;;;;;5.05;1.75;;;21.70;92.80;;;;;;5037984;28;20676;-71
2022/04/24 09:05:27;;;;;;;2.95;1.40;;;21.60;92.80;;;;;;5054967;28;20525;-72
2022/04/24 09:08:04;;;;;;;3.78;2.08;;;21.80;92.60;;;;;;5071455;28;20067;-70
2022/04/24 09:10:55;;;;;;;4.40;1.88;;;22.10;92.60;;;;;;5071513;28;20138;-71
2022/04/24 09:16:24;;;;;;;4.43;2.05;;;22.20;92.20;;;;;;5055329;28;20052;-70
2022/04/24 09:18:52;;;;;;;5.53;1.80;;;22.30;91.80;;;;;;5038542;28;20135;-69
2022/04/24 09:21:19;;;;;;;6.47;2.08;;;22.40;92.00;;;;;;5071339;28;20040;-71
2022/04/24 09:23:47;;;;;;;3.15;1.75;;;22.40;91.80;;;;;;5054743;28;20056;-70
2022/04/24 09:26:19;;;;;;;3.63;1.50;;;22.70;91.70;;;;;;5071581;28;20067;-70
2022/04/24 09:28:48;;;;;;;4.80;1.65;;;22.60;90.90;;;;;;5071078;28;20465;-69
2022/04/24 09:31:16;;;;;;;4.97;1.70;;;22.60;90.80;;;;;;5052563;28;20048;-68
2022/04/24 09:33:44;;;;;;;4.50;1.50;;;22.70;91.20;;;;;;5071031;28;20071;-69
2022/04/24 09:36:13;;;;;;;6.18;2.05;;;22.70;91.10;;;;;;5071157;28;20052;-69
2022/04/24 09:38:45;;;;;;;3.65;1.58;;;22.50;90.70;;;;;;5054818;28;20471;-69
2022/04/24 09:41:22;;;;;;;2.75;1.85;;;22.50;90.70;;;;;;5055520;28;20392;-70
2022/04/24 09:43:50;;;;;;;5.38;2.65;;;22.60;90.50;;;;;;5071273;28;20097;-68
2022/04/24 09:46:26;;;;;;;7.18;1.50;;;22.70;90.50;;;;;;5038016;28;20098;-69
2022/04/24 09:48:57;;;;;;;3.20;1.45;;;22.70;90.10;;;;;;5071384;28;20052;-69
2022/04/24 09:51:25;;;;;;;2.50;1.77;;;22.70;90.10;;;;;;5070909;28;20139;-69
2022/04/24 09:53:59;;;;;;;3.53;1.55;;;22.70;90.10;;;;;;5054531;28;20058;-69
2022/04/24 09:56:28;;;;;;;3.17;1.50;;;22.70;90.10;;;;;;5072232;28;20086;-69
2022/04/24 09:58:57;;;;;;;4.07;1.45;;;22.90;90.20;;;;;;5071962;28;20139;-68
2022/04/24 10:01:27;;;;;;;3.88;1.55;;;23.00;89.70;;;;;;5071715;28;20055;-70
2022/04/24 10:03:57;;;;;;;2.53;2.10;;;23.10;88.90;;;;;;5070822;28;20067;-70
2022/04/24 10:06:25;;;;;;;3.25;1.40;;;23.20;89.10;;;;;;5054179;28;20494;-70
2022/04/24 10:08:53;;;;;;;4.10;2.70;;;23.30;89.90;;;;;;5053877;28;20099;-69
2022/04/24 10:11:21;;;;;;;2.90;1.58;;;23.20;88.60;;;;;;5070575;28;20045;-69
2022/04/24 10:13:59;;;;;;;3.55;1.60;;;23.10;88.20;;;;;;5070832;28;20044;-71
2022/04/24 10:16:42;;;;;;;2.58;1.38;;;23.30;89.10;;;;;;5069794;28;20056;-71
2022/04/24 10:20:02;;;;;;;4.80;1.70;;;23.30;88.90;;;;;;5053679;28;20056;-69
2022/04/24 10:22:37;;;;;;;4.25;2.30;;;23.40;89.60;;;;;;5009364;28;20496;-70
2022/04/24 10:25:06;;;;;;;5.38;2.67;;;23.30;88.60;;;;;;5037645;28;20044;-71
2022/04/24 10:27:46;;;;;;;5.93;2.72;;;23.30;88.20;;;;;;5017529;28;20407;-69
2022/04/24 10:30:25;;;;;;;7.72;2.75;;;23.30;89.20;;;;;;5033868;28;20037;-70
2022/04/24 10:33:11;;;;;;;6.22;2.20;;;23.30;89.80;;;;;;5032913;28;20417;-69
2022/04/24 10:36:05;;;;;;;3.72;1.90;;;23.40;89.30;;;;;;5049697;28;20856;-71
2022/04/24 10:38:57;;;;;;;5.30;1.60;;;23.40;88.50;;;;;;5050049;28;20131;-71
2022/04/24 10:41:59;;;;;;;2.45;1.40;;;23.50;88.00;;;;;;5049979;28;20443;-69
2022/04/24 10:44:27;;;;;;;5.68;2.30;;;23.30;87.60;;;;;;5050176;28;20098;-70
2022/04/24 10:46:57;;;;;;;6.75;2.78;;;23.40;87.60;;;;;;5033218;28;20040;-72
2022/04/24 10:49:33;;;;;;;6.35;2.63;;;23.40;86.90;;;;;;5050155;28;20442;-72
2022/04/24 10:52:04;;;;;;;3.63;1.80;;;23.30;85.30;;;;;;5049690;28;20045;-71
2022/04/24 10:54:33;;;;;;;2.75;1.63;;;23.40;86.70;;;;;;5051086;28;20107;-71
2022/04/24 10:57:02;;;;;;;5.78;1.77;;;23.40;87.30;;;;;;5033090;28;20057;-73
2022/04/24 10:59:44;;;;;;;2.15;1.33;;;23.30;87.10;;;;;;5049654;28;20048;-71
2022/04/24 11:02:12;;;;;;;3.53;2.20;;;23.30;87.00;;;;;;5049586;28;20069;-70
2022/04/24 11:04:43;;;;;;;6.20;1.80;;;23.30;87.00;;;;;;5049832;28;20049;-71
2022/04/24 11:07:21;;;;;;;4.18;2.28;;;23.20;88.90;;;;;;5049333;28;20045;-72
2022/04/24 11:10:02;;;;;;;4.32;1.73;;;23.20;88.60;;;;;;5078444;28;20086;-71
2022/04/24 11:12:31;;;;;;;5.40;2.58;;;23.10;89.40;;;;;;5055923;28;20106;-71
2022/04/24 11:15:08;;;;;;;4.93;2.45;;;23.00;89.00;;;;;;5056062;28;20070;-73
2022/04/24 11:17:37;;;;;;;5.90;1.92;;;22.90;89.80;;;;;;5073074;28;20070;-70
2022/04/24 11:20:10;;;;;;;3.72;1.30;;;22.80;89.90;;;;;;5056014;28;20039;-71
2022/04/24 11:22:55;;;;;;;5.63;1.67;;;22.80;90.00;;;;;;5072859;28;20036;-71
2022/04/24 11:25:25;;;;;;;4.30;1.42;;;22.80;89.70;;;;;;5072855;28;20512;-71
2022/04/24 11:27:59;;;;;;;2.65;1.50;;;22.90;89.70;;;;;;5039018;28;20447;-71
2022/04/24 11:30:34;;;;;;;4.75;1.25;;;22.90;90.00;;;;;;5056206;28;20048;-71
2022/04/24 11:33:06;;;;;;;2.53;1.30;;;23.00;89.60;;;;;;5072552;28;20495;-71
2022/04/24 11:35:36;;;;;;;2.10;1.27;;;23.00;89.80;;;;;;5072618;28;20094;-71
2022/04/24 11:38:05;;;;;;;3.90;2.05;;;23.00;89.50;;;;;;5039342;28;20401;-71
2022/04/24 11:40:36;;;;;;;4.63;1.52;;;23.00;89.80;;;;;;5089885;28;20054;-69
2022/04/24 11:43:20;;;;;;;3.53;1.60;;;23.00;90.10;;;;;;5057767;28;20573;-69
2022/04/24 11:51:32;;;;;;;1.85;1.27;;;23.10;90.00;;;;;;5055663;28;20048;-70
2022/04/24 11:54:11;;;;;;;3.00;1.73;;;23.10;89.70;;;;;;5040262;28;20052;-70
2022/04/24 11:56:40;;;;;;;3.60;1.85;;;23.10;90.00;;;;;;5055315;28;20048;-66
2022/04/24 11:59:26;;;;;;;4.22;1.77;;;23.00;89.10;;;;;;5071923;28;20127;-70
2022/04/24 12:01:56;;;;;;;12.07;2.47;;;23.10;89.40;;;;;;5089943;28;20051;-70
2022/04/24 12:04:31;;;;;;;6.13;1.92;;;23.10;89.80;;;;;;5090440;28;20044;-67
2022/04/24 12:07:07;;;;;;;3.40;1.33;;;23.10;88.40;;;;;;5054535;28;20132;-69
2022/04/24 12:09:37;;;;;;;5.72;2.00;;;23.00;88.80;;;;;;5055304;28;20458;-68
2022/04/24 12:12:13;;;;;;;3.85;1.65;;;23.00;89.00;;;;;;5055708;28;20135;-68
2022/04/24 12:14:48;;;;;;;4.55;1.50;;;22.90;89.00;;;;;;5072617;28;20486;-69
2022/04/24 12:17:15;;;;;;;2.55;1.60;;;22.80;89.00;;;;;;5090265;28;20051;-69
2022/04/24 12:19:54;;;;;;;3.08;1.50;;;22.90;90.00;;;;;;5038546;28;20052;-68
2022/04/24 12:22:30;;;;;;;2.75;1.77;;;22.80;88.40;;;;;;5072246;28;20123;-70
2022/04/24 12:25:18;;;;;;;2.65;1.60;;;22.70;88.40;;;;;;5071486;28;20048;-69
2022/04/24 12:27:57;;;;;;;4.90;2.00;;;22.60;89.20;;;;;;5054837;28;20404;-69
2022/04/24 12:30:34;;;;;;;3.67;1.58;;;22.60;89.20;;;;;;5055426;28;20130;-68
2022/04/24 12:33:06;;;;;;;5.25;1.70;;;22.70;90.00;;;;;;5038590;28;20059;-69
2022/04/24 12:35:34;;;;;;;3.63;1.52;;;22.80;89.60;;;;;;5072278;28;20048;-69
2022/04/24 12:38:23;;;;;;;3.55;1.33;;;22.70;88.80;;;;;;5039260;28;20068;-69
2022/04/24 12:40:59;;;;;;;4.40;1.50;;;22.70;89.50;;;;;;5075527;28;20048;-69
2022/04/24 12:43:30;;;;;;;3.42;1.50;;;22.80;89.50;;;;;;5093675;28;20036;-69
2022/04/24 12:45:59;;;;;;;4.45;1.30;;;22.80;88.50;;;;;;5042491;28;20059;-69
2022/04/24 12:48:27;;;;;;;5.07;1.98;;;22.70;88.60;;;;;;5059362;28;20047;-70
2022/04/24 12:50:55;;;;;;;5.68;2.10;;;22.70;89.00;;;;;;5054305;28;20499;-70
2022/04/24 12:53:23;;;;;;;2.53;1.77;;;22.70;89.00;;;;;;5055414;28;20506;-70
2022/04/24 12:55:51;;;;;;;4.95;1.95;;;22.70;88.70;;;;;;5055710;28;20048;-69
2022/04/24 12:58:20;;;;;;;4.45;3.10;;;22.70;89.20;;;;;;5055279;28;20080;-70
2022/04/24 13:00:48;;;;;;;4.63;2.40;;;22.70;89.20;;;;;;5054651;28;20036;-69
2022/04/24 13:03:16;;;;;;;6.25;2.20;;;22.60;88.70;;;;;;5064998;28;20393;-70
2022/04/24 13:05:44;;;;;;;5.20;2.30;;;22.60;89.40;;;;;;5038495;28;20142;-69
2022/04/24 13:08:27;;;;;;;5.38;3.05;;;22.40;89.50;;;;;;5038618;28;20063;-70